sensor_id;sensor_type;location;lat;lon;timestamp;P1;durP1;ratioP1;P2;durP2;ratioP2
44036;SDS011;62488;-37.670;-63.532;2023-02-12T00:00:15;10.48;;;2.92;;
44036;SDS011;62488;-37.670;-63.532;2023-02-12T00:02:43;9.63;;;3.58;;
44036;SDS011;62488;-37.670;-63.532;2023-02-12T00:05:10;9.30;;;3.90;;
44036;SDS011;62488;-37.670;-63.532;2023-02-12T00:07:37;12.27;;;3.58;;
44036;SDS011;62488;-37.670;-63.532;2023-02-12T00:10:04;10.05;;;3.60;;
44036;SDS011;62488;-37.670;-63.532;2023-02-12T00:12:32;8.90;;;4.30;;
44036;SDS011;62488;-37.670;-63.532;2023-02-12T00:14:59;10.75;;;3.63;;
44036;SDS011;62488;-37.670;-63.532;2023-02-12T00:17:26;10.02;;;3.15;;
44036;SDS011;62488;-37.670;-63.532;2023-02-12T00:19:53;8.82;;;3.88;;
44036;SDS011;62488;-37.670;-63.532;2023-02-12T00:22:20;11.57;;;3.78;;
44036;SDS011;62488;-37.670;-63.532;2023-02-12T00:24:47;12.13;;;3.53;;
44036;SDS011;62488;-37.670;-63.532;2023-02-12T00:27:14;7.70;;;3.50;;
44036;SDS011;62488;-37.670;-63.532;2023-02-12T00:29:41;15.18;;;3.47;;
44036;SDS011;62488;-37.670;-63.532;2023-02-12T00:32:08;9.43;;;3.03;;
44036;SDS011;62488;-37.670;-63.532;2023-02-12T00:34:35;15.45;;;4.30;;
44036;SDS011;62488;-37.670;-63.532;2023-02-12T00:37:04;7.25;;;2.97;;
44036;SDS011;62488;-37.670;-63.532;2023-02-12T00:39:31;6.55;;;3.53;;
44036;SDS011;62488;-37.670;-63.532;2023-02-12T00:42:02;8.48;;;2.97;;
44036;SDS011;62488;-37.670;-63.532;2023-02-12T00:44:29;5.20;;;3.50;;
44036;SDS011;62488;-37.670;-63.532;2023-02-12T00:46:56;13.98;;;3.92;;
44036;SDS011;62488;-37.670;-63.532;2023-02-12T00:49:30;16.83;;;4.13;;
44036;SDS011;62488;-37.670;-63.532;2023-02-12T00:52:00;6.97;;;4.15;;
44036;SDS011;62488;-37.670;-63.532;2023-02-12T00:54:29;9.70;;;3.55;;
44036;SDS011;62488;-37.670;-63.532;2023-02-12T00:56:57;12.18;;;3.72;;
44036;SDS011;62488;-37.670;-63.532;2023-02-12T00:59:24;12.60;;;4.10;;
44036;SDS011;62488;-37.670;-63.532;2023-02-12T01:01:53;9.77;;;4.18;;
44036;SDS011;62488;-37.670;-63.532;2023-02-12T01:04:21;28.58;;;4.47;;
44036;SDS011;62488;-37.670;-63.532;2023-02-12T01:06:48;7.53;;;3.53;;
44036;SDS011;62488;-37.670;-63.532;2023-02-12T01:09:15;6.63;;;3.67;;
44036;SDS011;62488;-37.670;-63.532;2023-02-12T01:11:42;15.88;;;7.53;;
44036;SDS011;62488;-37.670;-63.532;2023-02-12T01:14:09;11.75;;;4.45;;
44036;SDS011;62488;-37.670;-63.532;2023-02-12T01:16:36;9.63;;;3.83;;
44036;SDS011;62488;-37.670;-63.532;2023-02-12T01:19:03;11.55;;;3.72;;
44036;SDS011;62488;-37.670;-63.532;2023-02-12T01:21:31;11.48;;;4.57;;
44036;SDS011;62488;-37.670;-63.532;2023-02-12T01:24:00;15.10;;;3.97;;
44036;SDS011;62488;-37.670;-63.532;2023-02-12T01:26:28;9.15;;;4.00;;
44036;SDS011;62488;-37.670;-63.532;2023-02-12T01:28:56;17.73;;;3.55;;
44036;SDS011;62488;-37.670;-63.532;2023-02-12T01:31:27;7.80;;;3.75;;
44036;SDS011;62488;-37.670;-63.532;2023-02-12T01:33:56;15.13;;;4.20;;
44036;SDS011;62488;-37.670;-63.532;2023-02-12T01:36:24;15.70;;;3.92;;
44036;SDS011;62488;-37.670;-63.532;2023-02-12T01:38:53;10.50;;;3.55;;
44036;SDS011;62488;-37.670;-63.532;2023-02-12T01:41:23;20.92;;;7.75;;
44036;SDS011;62488;-37.670;-63.532;2023-02-12T01:46:33;6.55;;;3.67;;
44036;SDS011;62488;-37.670;-63.532;2023-02-12T01:49:01;17.23;;;4.53;;
44036;SDS011;62488;-37.670;-63.532;2023-02-12T01:51:30;18.60;;;5.00;;
44036;SDS011;62488;-37.670;-63.532;2023-02-12T01:53:58;18.80;;;4.40;;
44036;SDS011;62488;-37.670;-63.532;2023-02-12T01:56:29;9.48;;;4.47;;
44036;SDS011;62488;-37.670;-63.532;2023-02-12T01:58:57;16.10;;;4.32;;
44036;SDS011;62488;-37.670;-63.532;2023-02-12T02:01:25;7.90;;;3.55;;
44036;SDS011;62488;-37.670;-63.532;2023-02-12T02:03:54;10.20;;;4.47;;
44036;SDS011;62488;-37.670;-63.532;2023-02-12T02:06:53;10.57;;;4.30;;
44036;SDS011;62488;-37.670;-63.532;2023-02-12T02:09:23;17.00;;;7.90;;
44036;SDS011;62488;-37.670;-63.532;2023-02-12T02:11:51;13.30;;;7.18;;
44036;SDS011;62488;-37.670;-63.532;2023-02-12T02:14:36;16.02;;;7.85;;
44036;SDS011;62488;-37.670;-63.532;2023-02-12T02:17:15;12.40;;;5.30;;
44036;SDS011;62488;-37.670;-63.532;2023-02-12T02:28:22;15.02;;;4.72;;
44036;SDS011;62488;-37.670;-63.532;2023-02-12T02:44:15;17.40;;;5.00;;
44036;SDS011;62488;-37.670;-63.532;2023-02-12T02:46:51;24.85;;;4.90;;
44036;SDS011;62488;-37.670;-63.532;2023-02-12T02:49:23;14.35;;;5.63;;
44036;SDS011;62488;-37.670;-63.532;2023-02-12T02:51:54;13.27;;;4.60;;
44036;SDS011;62488;-37.670;-63.532;2023-02-12T02:54:31;14.40;;;4.32;;
44036;SDS011;62488;-37.670;-63.532;2023-02-12T02:57:04;13.82;;;4.53;;
44036;SDS011;62488;-37.670;-63.532;2023-02-12T02:59:49;16.00;;;4.28;;
44036;SDS011;62488;-37.670;-63.532;2023-02-12T03:02:21;15.48;;;4.63;;
44036;SDS011;62488;-37.670;-63.532;2023-02-12T03:05:03;9.32;;;4.75;;
44036;SDS011;62488;-37.670;-63.532;2023-02-12T03:07:56;13.23;;;5.03;;
44036;SDS011;62488;-37.670;-63.532;2023-02-12T03:10:33;12.48;;;4.75;;
44036;SDS011;62488;-37.670;-63.532;2023-02-12T03:13:11;15.25;;;4.47;;
44036;SDS011;62488;-37.670;-63.532;2023-02-12T03:16:01;12.40;;;4.45;;
44036;SDS011;62488;-37.670;-63.532;2023-02-12T03:18:43;15.20;;;4.97;;
44036;SDS011;62488;-37.670;-63.532;2023-02-12T03:21:23;19.67;;;4.78;;
44036;SDS011;62488;-37.670;-63.532;2023-02-12T03:27:10;20.50;;;5.78;;
44036;SDS011;62488;-37.670;-63.532;2023-02-12T03:29:53;24.38;;;5.38;;
44036;SDS011;62488;-37.670;-63.532;2023-02-12T03:43:13;12.35;;;4.82;;
44036;SDS011;62488;-37.670;-63.532;2023-02-12T03:48:35;12.63;;;5.68;;
44036;SDS011;62488;-37.670;-63.532;2023-02-12T03:53:52;9.65;;;4.93;;
44036;SDS011;62488;-37.670;-63.532;2023-02-12T03:56:28;17.88;;;5.30;;
44036;SDS011;62488;-37.670;-63.532;2023-02-12T03:59:09;9.20;;;5.07;;
44036;SDS011;62488;-37.670;-63.532;2023-02-12T04:01:36;11.30;;;4.57;;
44036;SDS011;62488;-37.670;-63.532;2023-02-12T04:04:05;17.85;;;5.18;;
44036;SDS011;62488;-37.670;-63.532;2023-02-12T04:06:33;9.75;;;4.20;;
44036;SDS011;62488;-37.670;-63.532;2023-02-12T04:09:02;10.70;;;4.70;;
44036;SDS011;62488;-37.670;-63.532;2023-02-12T04:18:00;9.80;;;4.70;;
44036;SDS011;62488;-37.670;-63.532;2023-02-12T04:34:01;11.30;;;4.65;;
44036;SDS011;62488;-37.670;-63.532;2023-02-12T04:37:16;27.50;;;4.97;;
44036;SDS011;62488;-37.670;-63.532;2023-02-12T04:39:42;18.60;;;4.97;;
44036;SDS011;62488;-37.670;-63.532;2023-02-12T04:42:10;10.38;;;5.32;;
44036;SDS011;62488;-37.670;-63.532;2023-02-12T04:44:38;11.07;;;4.90;;
44036;SDS011;62488;-37.670;-63.532;2023-02-12T04:47:06;12.32;;;5.53;;
44036;SDS011;62488;-37.670;-63.532;2023-02-12T04:49:35;12.45;;;4.80;;
44036;SDS011;62488;-37.670;-63.532;2023-02-12T04:52:02;10.45;;;4.63;;
44036;SDS011;62488;-37.670;-63.532;2023-02-12T04:54:29;14.23;;;4.93;;
44036;SDS011;62488;-37.670;-63.532;2023-02-12T04:56:56;13.45;;;4.60;;
44036;SDS011;62488;-37.670;-63.532;2023-02-12T04:59:23;12.13;;;5.05;;
44036;SDS011;62488;-37.670;-63.532;2023-02-12T05:01:50;10.73;;;5.00;;
44036;SDS011;62488;-37.670;-63.532;2023-02-12T05:04:17;12.45;;;4.65;;
44036;SDS011;62488;-37.670;-63.532;2023-02-12T05:06:44;15.60;;;5.15;;
44036;SDS011;62488;-37.670;-63.532;2023-02-12T05:09:16;12.18;;;4.88;;
44036;SDS011;62488;-37.670;-63.532;2023-02-12T05:11:44;15.35;;;5.05;;
44036;SDS011;62488;-37.670;-63.532;2023-02-12T05:14:11;11.48;;;4.93;;
44036;SDS011;62488;-37.670;-63.532;2023-02-12T05:16:39;16.35;;;5.88;;
44036;SDS011;62488;-37.670;-63.532;2023-02-12T05:19:06;9.65;;;5.28;;
44036;SDS011;62488;-37.670;-63.532;2023-02-12T05:21:34;14.57;;;5.82;;
44036;SDS011;62488;-37.670;-63.532;2023-02-12T05:24:01;23.35;;;7.05;;
44036;SDS011;62488;-37.670;-63.532;2023-02-12T05:26:29;12.95;;;5.38;;
44036;SDS011;62488;-37.670;-63.532;2023-02-12T05:28:56;12.30;;;6.00;;
44036;SDS011;62488;-37.670;-63.532;2023-02-12T05:31:23;13.95;;;4.53;;
44036;SDS011;62488;-37.670;-63.532;2023-02-12T05:33:50;7.15;;;4.38;;
44036;SDS011;62488;-37.670;-63.532;2023-02-12T05:36:19;9.95;;;5.05;;
44036;SDS011;62488;-37.670;-63.532;2023-02-12T05:38:48;11.68;;;5.80;;
44036;SDS011;62488;-37.670;-63.532;2023-02-12T05:41:17;11.98;;;5.43;;
44036;SDS011;62488;-37.670;-63.532;2023-02-12T05:43:46;13.05;;;4.93;;
44036;SDS011;62488;-37.670;-63.532;2023-02-12T05:46:13;15.15;;;5.45;;
44036;SDS011;62488;-37.670;-63.532;2023-02-12T05:48:43;8.52;;;5.50;;
44036;SDS011;62488;-37.670;-63.532;2023-02-12T05:51:15;8.02;;;4.80;;
44036;SDS011;62488;-37.670;-63.532;2023-02-12T05:53:46;17.65;;;6.35;;
44036;SDS011;62488;-37.670;-63.532;2023-02-12T05:56:27;8.43;;;5.93;;
44036;SDS011;62488;-37.670;-63.532;2023-02-12T05:59:02;20.25;;;5.75;;
44036;SDS011;62488;-37.670;-63.532;2023-02-12T06:01:33;12.65;;;6.05;;
44036;SDS011;62488;-37.670;-63.532;2023-02-12T06:04:03;13.57;;;6.45;;
44036;SDS011;62488;-37.670;-63.532;2023-02-12T06:06:33;10.93;;;5.55;;
44036;SDS011;62488;-37.670;-63.532;2023-02-12T06:09:00;14.38;;;6.03;;
44036;SDS011;62488;-37.670;-63.532;2023-02-12T06:11:27;10.57;;;5.20;;
44036;SDS011;62488;-37.670;-63.532;2023-02-12T06:13:54;11.75;;;5.10;;
44036;SDS011;62488;-37.670;-63.532;2023-02-12T06:16:22;16.05;;;5.10;;
44036;SDS011;62488;-37.670;-63.532;2023-02-12T06:18:52;17.48;;;6.22;;
44036;SDS011;62488;-37.670;-63.532;2023-02-12T06:21:20;19.13;;;6.45;;
44036;SDS011;62488;-37.670;-63.532;2023-02-12T06:23:48;13.38;;;5.50;;
44036;SDS011;62488;-37.670;-63.532;2023-02-12T06:26:17;12.65;;;6.18;;
44036;SDS011;62488;-37.670;-63.532;2023-02-12T06:28:44;12.80;;;5.57;;
44036;SDS011;62488;-37.670;-63.532;2023-02-12T06:31:16;17.33;;;5.88;;
44036;SDS011;62488;-37.670;-63.532;2023-02-12T06:33:48;12.90;;;6.18;;
44036;SDS011;62488;-37.670;-63.532;2023-02-12T06:36:16;14.15;;;6.45;;
44036;SDS011;62488;-37.670;-63.532;2023-02-12T06:38:43;10.77;;;5.95;;
44036;SDS011;62488;-37.670;-63.532;2023-02-12T06:41:11;10.38;;;5.97;;
44036;SDS011;62488;-37.670;-63.532;2023-02-12T06:43:38;14.15;;;6.07;;
44036;SDS011;62488;-37.670;-63.532;2023-02-12T06:46:05;17.60;;;5.82;;
44036;SDS011;62488;-37.670;-63.532;2023-02-12T06:48:33;12.98;;;5.75;;
44036;SDS011;62488;-37.670;-63.532;2023-02-12T06:51:07;13.15;;;5.75;;
44036;SDS011;62488;-37.670;-63.532;2023-02-12T06:53:36;10.63;;;6.25;;
44036;SDS011;62488;-37.670;-63.532;2023-02-12T06:56:04;12.80;;;5.97;;
44036;SDS011;62488;-37.670;-63.532;2023-02-12T06:58:36;17.67;;;5.78;;
44036;SDS011;62488;-37.670;-63.532;2023-02-12T07:01:17;8.38;;;6.10;;
44036;SDS011;62488;-37.670;-63.532;2023-02-12T07:03:50;11.68;;;6.30;;
44036;SDS011;62488;-37.670;-63.532;2023-02-12T07:06:22;15.50;;;6.05;;
44036;SDS011;62488;-37.670;-63.532;2023-02-12T07:08:50;16.13;;;6.45;;
44036;SDS011;62488;-37.670;-63.532;2023-02-12T07:11:17;11.45;;;6.55;;
44036;SDS011;62488;-37.670;-63.532;2023-02-12T07:13:48;10.85;;;5.93;;
44036;SDS011;62488;-37.670;-63.532;2023-02-12T07:16:15;14.23;;;5.97;;
44036;SDS011;62488;-37.670;-63.532;2023-02-12T07:18:43;12.55;;;5.57;;
44036;SDS011;62488;-37.670;-63.532;2023-02-12T07:21:10;12.15;;;5.55;;
44036;SDS011;62488;-37.670;-63.532;2023-02-12T07:23:38;19.23;;;5.55;;
44036;SDS011;62488;-37.670;-63.532;2023-02-12T07:26:07;18.33;;;6.43;;
44036;SDS011;62488;-37.670;-63.532;2023-02-12T07:28:36;16.58;;;5.85;;
44036;SDS011;62488;-37.670;-63.532;2023-02-12T07:33:39;20.60;;;5.65;;
44036;SDS011;62488;-37.670;-63.532;2023-02-12T07:36:07;12.73;;;5.72;;
44036;SDS011;62488;-37.670;-63.532;2023-02-12T07:38:36;9.60;;;5.85;;
44036;SDS011;62488;-37.670;-63.532;2023-02-12T07:41:13;11.10;;;5.88;;
44036;SDS011;62488;-37.670;-63.532;2023-02-12T07:43:43;8.90;;;5.65;;
44036;SDS011;62488;-37.670;-63.532;2023-02-12T07:46:19;11.82;;;5.60;;
44036;SDS011;62488;-37.670;-63.532;2023-02-12T07:48:49;11.60;;;6.20;;
44036;SDS011;62488;-37.670;-63.532;2023-02-12T07:51:17;14.90;;;5.60;;
44036;SDS011;62488;-37.670;-63.532;2023-02-12T07:53:44;13.15;;;5.60;;
44036;SDS011;62488;-37.670;-63.532;2023-02-12T07:56:15;12.35;;;4.80;;
44036;SDS011;62488;-37.670;-63.532;2023-02-12T07:58:44;20.30;;;5.80;;
44036;SDS011;62488;-37.670;-63.532;2023-02-12T08:01:23;13.20;;;5.28;;
44036;SDS011;62488;-37.670;-63.532;2023-02-12T08:03:52;10.63;;;5.03;;
44036;SDS011;62488;-37.670;-63.532;2023-02-12T08:06:23;13.27;;;5.63;;
44036;SDS011;62488;-37.670;-63.532;2023-02-12T08:08:52;9.52;;;5.22;;
44036;SDS011;62488;-37.670;-63.532;2023-02-12T08:11:20;16.05;;;6.35;;
44036;SDS011;62488;-37.670;-63.532;2023-02-12T08:13:49;9.13;;;5.43;;
44036;SDS011;62488;-37.670;-63.532;2023-02-12T08:16:18;17.40;;;5.93;;
44036;SDS011;62488;-37.670;-63.532;2023-02-12T08:18:47;14.80;;;4.70;;
44036;SDS011;62488;-37.670;-63.532;2023-02-12T08:21:15;8.07;;;5.18;;
44036;SDS011;62488;-37.670;-63.532;2023-02-12T08:23:44;10.95;;;4.90;;
44036;SDS011;62488;-37.670;-63.532;2023-02-12T08:28:48;14.45;;;5.45;;
44036;SDS011;62488;-37.670;-63.532;2023-02-12T08:31:19;15.50;;;5.20;;
44036;SDS011;62488;-37.670;-63.532;2023-02-12T08:33:48;18.00;;;4.85;;
44036;SDS011;62488;-37.670;-63.532;2023-02-12T08:36:17;14.93;;;5.15;;
44036;SDS011;62488;-37.670;-63.532;2023-02-12T08:38:45;20.65;;;4.88;;
44036;SDS011;62488;-37.670;-63.532;2023-02-12T08:41:14;11.65;;;4.93;;
44036;SDS011;62488;-37.670;-63.532;2023-02-12T08:43:43;14.88;;;5.55;;
44036;SDS011;62488;-37.670;-63.532;2023-02-12T08:46:11;17.17;;;5.65;;
44036;SDS011;62488;-37.670;-63.532;2023-02-12T08:48:40;13.00;;;5.13;;
44036;SDS011;62488;-37.670;-63.532;2023-02-12T08:51:13;9.83;;;5.40;;
44036;SDS011;62488;-37.670;-63.532;2023-02-12T08:53:44;8.35;;;5.03;;
44036;SDS011;62488;-37.670;-63.532;2023-02-12T08:58:40;11.02;;;5.30;;
44036;SDS011;62488;-37.670;-63.532;2023-02-12T09:01:15;23.10;;;7.10;;
44036;SDS011;62488;-37.670;-63.532;2023-02-12T09:03:44;14.15;;;4.95;;
44036;SDS011;62488;-37.670;-63.532;2023-02-12T09:06:12;27.67;;;7.13;;
44036;SDS011;62488;-37.670;-63.532;2023-02-12T09:08:39;11.38;;;6.18;;
44036;SDS011;62488;-37.670;-63.532;2023-02-12T09:11:08;8.88;;;5.32;;
44036;SDS011;62488;-37.670;-63.532;2023-02-12T09:13:37;19.20;;;5.90;;
44036;SDS011;62488;-37.670;-63.532;2023-02-12T09:16:05;25.30;;;5.95;;
44036;SDS011;62488;-37.670;-63.532;2023-02-12T09:18:33;18.92;;;4.47;;
44036;SDS011;62488;-37.670;-63.532;2023-02-12T09:21:02;11.40;;;4.35;;
44036;SDS011;62488;-37.670;-63.532;2023-02-12T09:23:33;14.48;;;3.95;;
44036;SDS011;62488;-37.670;-63.532;2023-02-12T09:26:04;28.17;;;5.32;;
44036;SDS011;62488;-37.670;-63.532;2023-02-12T09:28:36;14.40;;;4.03;;
44036;SDS011;62488;-37.670;-63.532;2023-02-12T09:31:08;17.63;;;3.85;;
44036;SDS011;62488;-37.670;-63.532;2023-02-12T09:33:39;13.85;;;4.22;;
44036;SDS011;62488;-37.670;-63.532;2023-02-12T09:36:08;14.43;;;4.38;;
44036;SDS011;62488;-37.670;-63.532;2023-02-12T09:38:37;20.10;;;5.05;;
44036;SDS011;62488;-37.670;-63.532;2023-02-12T09:41:23;9.05;;;4.90;;
44036;SDS011;62488;-37.670;-63.532;2023-02-12T09:44:24;13.23;;;4.68;;
44036;SDS011;62488;-37.670;-63.532;2023-02-12T09:47:07;11.35;;;4.75;;
44036;SDS011;62488;-37.670;-63.532;2023-02-12T09:49:53;19.38;;;5.30;;
44036;SDS011;62488;-37.670;-63.532;2023-02-12T09:52:23;12.02;;;4.60;;
44036;SDS011;62488;-37.670;-63.532;2023-02-12T09:54:53;7.57;;;4.50;;
44036;SDS011;62488;-37.670;-63.532;2023-02-12T09:57:34;17.20;;;5.35;;
44036;SDS011;62488;-37.670;-63.532;2023-02-12T10:02:35;11.65;;;4.38;;
44036;SDS011;62488;-37.670;-63.532;2023-02-12T10:05:04;14.93;;;4.40;;
44036;SDS011;62488;-37.670;-63.532;2023-02-12T10:13:35;14.75;;;5.18;;
44036;SDS011;62488;-37.670;-63.532;2023-02-12T10:26:59;12.55;;;4.80;;
44036;SDS011;62488;-37.670;-63.532;2023-02-12T10:29:31;17.48;;;5.00;;
44036;SDS011;62488;-37.670;-63.532;2023-02-12T10:34:48;18.17;;;5.53;;
44036;SDS011;62488;-37.670;-63.532;2023-02-12T10:37:39;17.13;;;5.38;;
44036;SDS011;62488;-37.670;-63.532;2023-02-12T10:40:49;17.30;;;4.68;;
44036;SDS011;62488;-37.670;-63.532;2023-02-12T10:42:54;9.10;;;4.60;;
44036;SDS011;62488;-37.670;-63.532;2023-02-12T10:45:36;9.37;;;4.27;;
44036;SDS011;62488;-37.670;-63.532;2023-02-12T10:48:06;14.80;;;4.88;;
44036;SDS011;62488;-37.670;-63.532;2023-02-12T10:50:40;8.30;;;4.68;;
44036;SDS011;62488;-37.670;-63.532;2023-02-12T10:53:24;10.18;;;4.15;;
44036;SDS011;62488;-37.670;-63.532;2023-02-12T10:58:42;11.82;;;3.90;;
44036;SDS011;62488;-37.670;-63.532;2023-02-12T11:03:57;11.00;;;3.55;;
44036;SDS011;62488;-37.670;-63.532;2023-02-12T11:06:27;12.13;;;3.33;;
44036;SDS011;62488;-37.670;-63.532;2023-02-12T11:08:56;7.75;;;3.90;;
44036;SDS011;62488;-37.670;-63.532;2023-02-12T11:11:26;7.38;;;4.30;;
44036;SDS011;62488;-37.670;-63.532;2023-02-12T11:14:03;8.45;;;3.92;;
44036;SDS011;62488;-37.670;-63.532;2023-02-12T11:16:35;4.78;;;3.10;;
44036;SDS011;62488;-37.670;-63.532;2023-02-12T11:19:17;8.15;;;3.35;;
44036;SDS011;62488;-37.670;-63.532;2023-02-12T11:21:46;8.57;;;3.47;;
44036;SDS011;62488;-37.670;-63.532;2023-02-12T11:24:31;8.70;;;3.67;;
44036;SDS011;62488;-37.670;-63.532;2023-02-12T11:27:19;9.05;;;3.80;;
44036;SDS011;62488;-37.670;-63.532;2023-02-12T11:30:03;10.57;;;3.58;;
44036;SDS011;62488;-37.670;-63.532;2023-02-12T11:32:39;6.90;;;3.58;;
44036;SDS011;62488;-37.670;-63.532;2023-02-12T11:35:17;11.70;;;3.25;;
44036;SDS011;62488;-37.670;-63.532;2023-02-12T11:37:54;10.70;;;3.53;;
44036;SDS011;62488;-37.670;-63.532;2023-02-12T11:40:31;4.35;;;3.03;;
44036;SDS011;62488;-37.670;-63.532;2023-02-12T11:43:03;8.52;;;3.25;;
44036;SDS011;62488;-37.670;-63.532;2023-02-12T11:45:36;6.93;;;3.25;;
44036;SDS011;62488;-37.670;-63.532;2023-02-12T11:48:31;4.60;;;2.15;;
44036;SDS011;62488;-37.670;-63.532;2023-02-12T11:51:05;4.93;;;2.28;;
44036;SDS011;62488;-37.670;-63.532;2023-02-12T11:53:39;7.63;;;2.63;;
44036;SDS011;62488;-37.670;-63.532;2023-02-12T11:56:09;6.03;;;2.15;;
44036;SDS011;62488;-37.670;-63.532;2023-02-12T11:58:38;5.18;;;1.83;;
44036;SDS011;62488;-37.670;-63.532;2023-02-12T12:01:10;5.45;;;2.10;;
44036;SDS011;62488;-37.670;-63.532;2023-02-12T12:09:38;3.00;;;1.73;;
44036;SDS011;62488;-37.670;-63.532;2023-02-12T12:18:12;1.73;;;1.60;;
44036;SDS011;62488;-37.670;-63.532;2023-02-12T12:20:52;4.53;;;1.55;;
44036;SDS011;62488;-37.670;-63.532;2023-02-12T12:23:27;11.25;;;1.98;;
44036;SDS011;62488;-37.670;-63.532;2023-02-12T12:26:23;5.43;;;1.52;;
44036;SDS011;62488;-37.670;-63.532;2023-02-12T12:28:53;4.85;;;1.30;;
44036;SDS011;62488;-37.670;-63.532;2023-02-12T12:31:27;1.90;;;1.30;;
44036;SDS011;62488;-37.670;-63.532;2023-02-12T12:56:30;2.03;;;1.10;;
44036;SDS011;62488;-37.670;-63.532;2023-02-12T12:59:28;4.20;;;1.30;;
44036;SDS011;62488;-37.670;-63.532;2023-02-12T13:02:33;2.67;;;1.17;;
44036;SDS011;62488;-37.670;-63.532;2023-02-12T13:27:14;1.38;;;0.85;;
44036;SDS011;62488;-37.670;-63.532;2023-02-12T13:29:48;1.08;;;0.60;;
44036;SDS011;62488;-37.670;-63.532;2023-02-12T13:32:41;4.75;;;2.92;;
44036;SDS011;62488;-37.670;-63.532;2023-02-12T13:35:16;1.80;;;0.88;;
44036;SDS011;62488;-37.670;-63.532;2023-02-12T13:37:50;3.10;;;0.80;;
44036;SDS011;62488;-37.670;-63.532;2023-02-12T13:40:26;2.05;;;0.82;;
44036;SDS011;62488;-37.670;-63.532;2023-02-12T13:59:56;1.15;;;0.90;;
44036;SDS011;62488;-37.670;-63.532;2023-02-12T14:07:03;5.40;;;1.00;;
44036;SDS011;62488;-37.670;-63.532;2023-02-12T14:09:38;2.05;;;1.13;;
44036;SDS011;62488;-37.670;-63.532;2023-02-12T14:12:12;1.38;;;0.70;;
44036;SDS011;62488;-37.670;-63.532;2023-02-12T14:14:50;2.78;;;0.73;;
44036;SDS011;62488;-37.670;-63.532;2023-02-12T14:27:49;7.15;;;1.23;;
44036;SDS011;62488;-37.670;-63.532;2023-02-12T14:30:25;3.83;;;0.77;;
44036;SDS011;62488;-37.670;-63.532;2023-02-12T14:35:45;2.20;;;1.10;;
44036;SDS011;62488;-37.670;-63.532;2023-02-12T14:47:48;4.13;;;0.85;;
44036;SDS011;62488;-37.670;-63.532;2023-02-12T14:49:56;2.45;;;0.70;;
44036;SDS011;62488;-37.670;-63.532;2023-02-12T14:52:31;2.67;;;0.82;;
44036;SDS011;62488;-37.670;-63.532;2023-02-12T14:55:04;1.25;;;0.80;;
44036;SDS011;62488;-37.670;-63.532;2023-02-12T14:57:49;2.65;;;2.45;;
44036;SDS011;62488;-37.670;-63.532;2023-02-12T15:00:23;3.35;;;0.80;;
44036;SDS011;62488;-37.670;-63.532;2023-02-12T15:03:04;5.38;;;0.98;;
44036;SDS011;62488;-37.670;-63.532;2023-02-12T15:05:37;5.80;;;2.10;;
44036;SDS011;62488;-37.670;-63.532;2023-02-12T15:08:21;6.95;;;1.08;;
44036;SDS011;62488;-37.670;-63.532;2023-02-12T15:13:51;2.22;;;0.75;;
44036;SDS011;62488;-37.670;-63.532;2023-02-12T15:21:43;2.67;;;0.95;;
44036;SDS011;62488;-37.670;-63.532;2023-02-12T15:24:11;1.95;;;0.73;;
44036;SDS011;62488;-37.670;-63.532;2023-02-12T15:26:47;6.15;;;0.98;;
44036;SDS011;62488;-37.670;-63.532;2023-02-12T15:31:53;0.68;;;0.68;;
44036;SDS011;62488;-37.670;-63.532;2023-02-12T15:34:23;5.10;;;0.70;;
44036;SDS011;62488;-37.670;-63.532;2023-02-12T15:36:54;1.00;;;0.88;;
44036;SDS011;62488;-37.670;-63.532;2023-02-12T15:39:23;3.08;;;1.70;;
44036;SDS011;62488;-37.670;-63.532;2023-02-12T15:41:52;1.52;;;1.30;;
44036;SDS011;62488;-37.670;-63.532;2023-02-12T15:44:20;1.30;;;1.10;;
44036;SDS011;62488;-37.670;-63.532;2023-02-12T15:47:00;2.97;;;0.95;;
44036;SDS011;62488;-37.670;-63.532;2023-02-12T15:49:37;2.83;;;1.10;;
44036;SDS011;62488;-37.670;-63.532;2023-02-12T15:52:18;1.15;;;0.80;;
44036;SDS011;62488;-37.670;-63.532;2023-02-12T15:54:51;1.48;;;0.70;;
44036;SDS011;62488;-37.670;-63.532;2023-02-12T15:57:20;4.22;;;1.10;;
44036;SDS011;62488;-37.670;-63.532;2023-02-12T15:59:49;1.73;;;0.85;;
44036;SDS011;62488;-37.670;-63.532;2023-02-12T16:02:19;3.78;;;0.77;;
44036;SDS011;62488;-37.670;-63.532;2023-02-12T16:04:53;3.85;;;1.05;;
44036;SDS011;62488;-37.670;-63.532;2023-02-12T16:07:22;1.15;;;0.80;;
44036;SDS011;62488;-37.670;-63.532;2023-02-12T16:09:53;2.30;;;0.57;;
44036;SDS011;62488;-37.670;-63.532;2023-02-12T16:12:21;3.35;;;0.63;;
44036;SDS011;62488;-37.670;-63.532;2023-02-12T16:14:54;2.97;;;0.80;;
44036;SDS011;62488;-37.670;-63.532;2023-02-12T16:20:06;6.65;;;0.90;;
44036;SDS011;62488;-37.670;-63.532;2023-02-12T16:22:48;2.75;;;1.08;;
44036;SDS011;62488;-37.670;-63.532;2023-02-12T16:25:26;1.10;;;0.70;;
44036;SDS011;62488;-37.670;-63.532;2023-02-12T16:27:56;2.38;;;1.10;;
44036;SDS011;62488;-37.670;-63.532;2023-02-12T16:30:37;3.13;;;0.88;;
44036;SDS011;62488;-37.670;-63.532;2023-02-12T16:33:50;2.35;;;0.80;;
44036;SDS011;62488;-37.670;-63.532;2023-02-12T16:36:44;3.28;;;0.80;;
44036;SDS011;62488;-37.670;-63.532;2023-02-12T16:38:57;5.25;;;1.10;;
44036;SDS011;62488;-37.670;-63.532;2023-02-12T16:41:28;1.15;;;0.80;;
44036;SDS011;62488;-37.670;-63.532;2023-02-12T16:46:27;4.05;;;0.90;;
44036;SDS011;62488;-37.670;-63.532;2023-02-12T16:49:15;2.92;;;0.73;;
44036;SDS011;62488;-37.670;-63.532;2023-02-12T16:51:45;1.02;;;0.80;;
44036;SDS011;62488;-37.670;-63.532;2023-02-12T16:56:56;1.55;;;0.80;;
44036;SDS011;62488;-37.670;-63.532;2023-02-12T16:59:24;2.08;;;1.00;;
44036;SDS011;62488;-37.670;-63.532;2023-02-12T17:01:59;1.88;;;0.98;;
44036;SDS011;62488;-37.670;-63.532;2023-02-12T17:04:28;2.25;;;0.85;;
44036;SDS011;62488;-37.670;-63.532;2023-02-12T17:06:55;2.00;;;1.02;;
44036;SDS011;62488;-37.670;-63.532;2023-02-12T17:09:22;4.63;;;1.10;;
44036;SDS011;62488;-37.670;-63.532;2023-02-12T17:11:50;0.70;;;0.70;;
44036;SDS011;62488;-37.670;-63.532;2023-02-12T17:14:17;0.75;;;0.75;;
44036;SDS011;62488;-37.670;-63.532;2023-02-12T17:16:45;0.68;;;0.68;;
44036;SDS011;62488;-37.670;-63.532;2023-02-12T17:19:13;4.20;;;0.90;;
44036;SDS011;62488;-37.670;-63.532;2023-02-12T17:21:43;2.78;;;0.82;;
44036;SDS011;62488;-37.670;-63.532;2023-02-12T17:24:18;2.92;;;0.80;;
44036;SDS011;62488;-37.670;-63.532;2023-02-12T17:26:46;3.30;;;1.08;;
44036;SDS011;62488;-37.670;-63.532;2023-02-12T17:29:15;1.58;;;0.80;;
44036;SDS011;62488;-37.670;-63.532;2023-02-12T17:31:47;5.93;;;1.10;;
44036;SDS011;62488;-37.670;-63.532;2023-02-12T17:34:14;1.42;;;1.00;;
44036;SDS011;62488;-37.670;-63.532;2023-02-12T17:36:42;1.83;;;1.00;;
44036;SDS011;62488;-37.670;-63.532;2023-02-12T17:39:09;4.18;;;0.90;;
44036;SDS011;62488;-37.670;-63.532;2023-02-12T17:41:38;2.90;;;0.90;;
44036;SDS011;62488;-37.670;-63.532;2023-02-12T17:44:05;1.70;;;0.80;;
44036;SDS011;62488;-37.670;-63.532;2023-02-12T17:46:32;0.90;;;0.90;;
44036;SDS011;62488;-37.670;-63.532;2023-02-12T17:48:59;2.22;;;0.80;;
44036;SDS011;62488;-37.670;-63.532;2023-02-12T17:51:27;1.00;;;0.80;;
44036;SDS011;62488;-37.670;-63.532;2023-02-12T17:53:55;2.30;;;1.00;;
44036;SDS011;62488;-37.670;-63.532;2023-02-12T17:56:22;5.28;;;1.23;;
44036;SDS011;62488;-37.670;-63.532;2023-02-12T17:58:52;1.20;;;0.80;;
44036;SDS011;62488;-37.670;-63.532;2023-02-12T18:01:20;2.42;;;1.10;;
44036;SDS011;62488;-37.670;-63.532;2023-02-12T18:03:48;1.55;;;1.00;;
44036;SDS011;62488;-37.670;-63.532;2023-02-12T18:06:22;4.38;;;1.00;;